sensor_id;sensor_type;location;lat;lon;timestamp;P1;durP1;ratioP1;P2;durP2;ratioP2
28509;SDS011;15723;55.684;37.928;2023-05-07T00:00:48;7.82;;;4.60;;
28509;SDS011;15723;55.684;37.928;2023-05-07T00:03:15;10.60;;;5.63;;
28509;SDS011;15723;55.684;37.928;2023-05-07T00:05:41;8.82;;;4.78;;
28509;SDS011;15723;55.684;37.928;2023-05-07T00:08:08;7.40;;;5.03;;
28509;SDS011;15723;55.684;37.928;2023-05-07T00:10:34;9.23;;;5.63;;
28509;SDS011;15723;55.684;37.928;2023-05-07T00:13:00;10.80;;;5.38;;
28509;SDS011;15723;55.684;37.928;2023-05-07T00:15:27;7.60;;;5.22;;
28509;SDS011;15723;55.684;37.928;2023-05-07T00:17:53;10.30;;;5.68;;
28509;SDS011;15723;55.684;37.928;2023-05-07T00:20:19;11.38;;;5.28;;
28509;SDS011;15723;55.684;37.928;2023-05-07T00:22:45;9.95;;;5.60;;
28509;SDS011;15723;55.684;37.928;2023-05-07T00:25:12;10.07;;;5.97;;
28509;SDS011;15723;55.684;37.928;2023-05-07T00:27:39;9.45;;;5.63;;
28509;SDS011;15723;55.684;37.928;2023-05-07T00:30:05;7.45;;;5.50;;
28509;SDS011;15723;55.684;37.928;2023-05-07T00:32:33;9.50;;;5.45;;
28509;SDS011;15723;55.684;37.928;2023-05-07T00:35:00;10.10;;;6.05;;
28509;SDS011;15723;55.684;37.928;2023-05-07T00:37:27;11.52;;;6.70;;
28509;SDS011;15723;55.684;37.928;2023-05-07T00:39:53;15.13;;;5.45;;
28509;SDS011;15723;55.684;37.928;2023-05-07T00:42:21;8.95;;;5.82;;
28509;SDS011;15723;55.684;37.928;2023-05-07T00:44:47;12.98;;;5.75;;
28509;SDS011;15723;55.684;37.928;2023-05-07T00:47:14;9.18;;;5.70;;
28509;SDS011;15723;55.684;37.928;2023-05-07T00:49:43;15.30;;;6.28;;
28509;SDS011;15723;55.684;37.928;2023-05-07T00:52:13;10.60;;;5.80;;
28509;SDS011;15723;55.684;37.928;2023-05-07T00:54:41;11.02;;;5.90;;
28509;SDS011;15723;55.684;37.928;2023-05-07T00:57:11;8.88;;;5.85;;
28509;SDS011;15723;55.684;37.928;2023-05-07T00:59:38;9.52;;;5.40;;
28509;SDS011;15723;55.684;37.928;2023-05-07T01:02:06;11.18;;;5.35;;
28509;SDS011;15723;55.684;37.928;2023-05-07T01:04:33;13.35;;;5.70;;
28509;SDS011;15723;55.684;37.928;2023-05-07T01:06:59;11.05;;;5.78;;
28509;SDS011;15723;55.684;37.928;2023-05-07T01:09:27;13.35;;;5.88;;
28509;SDS011;15723;55.684;37.928;2023-05-07T01:11:55;13.63;;;5.63;;
28509;SDS011;15723;55.684;37.928;2023-05-07T01:14:23;8.95;;;5.32;;
28509;SDS011;15723;55.684;37.928;2023-05-07T01:16:51;11.48;;;6.25;;
28509;SDS011;15723;55.684;37.928;2023-05-07T01:19:21;10.50;;;5.75;;
28509;SDS011;15723;55.684;37.928;2023-05-07T01:21:48;12.30;;;5.72;;
28509;SDS011;15723;55.684;37.928;2023-05-07T01:24:18;8.93;;;5.10;;
28509;SDS011;15723;55.684;37.928;2023-05-07T01:26:45;8.55;;;5.10;;
28509;SDS011;15723;55.684;37.928;2023-05-07T01:29:14;9.77;;;4.90;;
28509;SDS011;15723;55.684;37.928;2023-05-07T01:31:40;10.65;;;4.97;;
28509;SDS011;15723;55.684;37.928;2023-05-07T01:34:09;9.52;;;5.00;;
28509;SDS011;15723;55.684;37.928;2023-05-07T01:36:39;9.55;;;5.57;;
28509;SDS011;15723;55.684;37.928;2023-05-07T01:39:07;8.25;;;5.50;;
28509;SDS011;15723;55.684;37.928;2023-05-07T01:41:35;9.05;;;5.15;;
28509;SDS011;15723;55.684;37.928;2023-05-07T01:44:01;7.30;;;5.30;;
28509;SDS011;15723;55.684;37.928;2023-05-07T01:46:29;9.65;;;5.20;;
28509;SDS011;15723;55.684;37.928;2023-05-07T01:48:57;7.55;;;4.97;;
28509;SDS011;15723;55.684;37.928;2023-05-07T01:51:24;12.57;;;5.05;;
28509;SDS011;15723;55.684;37.928;2023-05-07T01:53:52;8.32;;;4.65;;
28509;SDS011;15723;55.684;37.928;2023-05-07T01:56:20;9.70;;;5.45;;
28509;SDS011;15723;55.684;37.928;2023-05-07T01:58:47;11.25;;;4.97;;
28509;SDS011;15723;55.684;37.928;2023-05-07T02:01:14;8.55;;;5.15;;
28509;SDS011;15723;55.684;37.928;2023-05-07T02:03:41;10.88;;;6.30;;
28509;SDS011;15723;55.684;37.928;2023-05-07T02:06:15;6.45;;;4.82;;
28509;SDS011;15723;55.684;37.928;2023-05-07T02:08:41;8.05;;;4.93;;
28509;SDS011;15723;55.684;37.928;2023-05-07T02:11:09;9.82;;;4.70;;
28509;SDS011;15723;55.684;37.928;2023-05-07T02:13:36;8.57;;;5.45;;
28509;SDS011;15723;55.684;37.928;2023-05-07T02:16:04;8.88;;;4.70;;
28509;SDS011;15723;55.684;37.928;2023-05-07T02:18:32;7.95;;;4.70;;
28509;SDS011;15723;55.684;37.928;2023-05-07T02:20:58;9.10;;;5.35;;
28509;SDS011;15723;55.684;37.928;2023-05-07T02:23:25;8.30;;;4.93;;
28509;SDS011;15723;55.684;37.928;2023-05-07T02:25:51;7.47;;;5.35;;
28509;SDS011;15723;55.684;37.928;2023-05-07T02:28:18;10.57;;;5.30;;
28509;SDS011;15723;55.684;37.928;2023-05-07T02:30:49;6.45;;;4.57;;
28509;SDS011;15723;55.684;37.928;2023-05-07T02:33:17;9.25;;;5.28;;
28509;SDS011;15723;55.684;37.928;2023-05-07T02:35:43;7.45;;;4.72;;
28509;SDS011;15723;55.684;37.928;2023-05-07T02:38:12;6.15;;;4.82;;
28509;SDS011;15723;55.684;37.928;2023-05-07T02:40:39;6.32;;;4.85;;
28509;SDS011;15723;55.684;37.928;2023-05-07T02:43:06;9.55;;;4.80;;
28509;SDS011;15723;55.684;37.928;2023-05-07T02:45:32;8.27;;;4.72;;
28509;SDS011;15723;55.684;37.928;2023-05-07T02:48:00;5.03;;;4.20;;
28509;SDS011;15723;55.684;37.928;2023-05-07T02:50:27;5.47;;;3.92;;
28509;SDS011;15723;55.684;37.928;2023-05-07T02:52:54;13.30;;;4.35;;
28509;SDS011;15723;55.684;37.928;2023-05-07T02:55:20;6.38;;;4.50;;
28509;SDS011;15723;55.684;37.928;2023-05-07T02:57:47;4.82;;;4.32;;
28509;SDS011;15723;55.684;37.928;2023-05-07T03:00:14;8.48;;;4.18;;
28509;SDS011;15723;55.684;37.928;2023-05-07T03:02:49;4.15;;;3.75;;
28509;SDS011;15723;55.684;37.928;2023-05-07T03:05:15;7.90;;;4.57;;
28509;SDS011;15723;55.684;37.928;2023-05-07T03:07:42;5.25;;;4.53;;
28509;SDS011;15723;55.684;37.928;2023-05-07T03:10:13;5.55;;;3.90;;
28509;SDS011;15723;55.684;37.928;2023-05-07T03:12:39;9.27;;;4.18;;
28509;SDS011;15723;55.684;37.928;2023-05-07T03:15:06;7.60;;;4.28;;
28509;SDS011;15723;55.684;37.928;2023-05-07T03:17:33;5.57;;;3.38;;
28509;SDS011;15723;55.684;37.928;2023-05-07T03:19:59;8.02;;;4.25;;
28509;SDS011;15723;55.684;37.928;2023-05-07T03:22:26;4.75;;;3.72;;
28509;SDS011;15723;55.684;37.928;2023-05-07T03:24:52;5.57;;;3.83;;
28509;SDS011;15723;55.684;37.928;2023-05-07T03:27:18;4.45;;;3.60;;
28509;SDS011;15723;55.684;37.928;2023-05-07T03:29:45;4.63;;;3.33;;
28509;SDS011;15723;55.684;37.928;2023-05-07T03:32:11;4.03;;;3.63;;
28509;SDS011;15723;55.684;37.928;2023-05-07T03:34:38;4.53;;;3.30;;
28509;SDS011;15723;55.684;37.928;2023-05-07T03:37:06;8.00;;;3.70;;
28509;SDS011;15723;55.684;37.928;2023-05-07T03:39:32;7.13;;;3.63;;
28509;SDS011;15723;55.684;37.928;2023-05-07T03:41:58;8.07;;;3.63;;
28509;SDS011;15723;55.684;37.928;2023-05-07T03:44:24;4.28;;;3.50;;
28509;SDS011;15723;55.684;37.928;2023-05-07T03:46:52;6.38;;;3.58;;
28509;SDS011;15723;55.684;37.928;2023-05-07T03:49:18;4.18;;;3.53;;
28509;SDS011;15723;55.684;37.928;2023-05-07T03:51:45;5.32;;;3.50;;
28509;SDS011;15723;55.684;37.928;2023-05-07T03:54:11;5.75;;;3.58;;
28509;SDS011;15723;55.684;37.928;2023-05-07T03:56:42;6.43;;;2.95;;
28509;SDS011;15723;55.684;37.928;2023-05-07T03:59:08;4.35;;;3.35;;
28509;SDS011;15723;55.684;37.928;2023-05-07T04:01:35;5.50;;;3.15;;
28509;SDS011;15723;55.684;37.928;2023-05-07T04:04:01;4.80;;;3.30;;
28509;SDS011;15723;55.684;37.928;2023-05-07T04:06:29;6.57;;;2.83;;
28509;SDS011;15723;55.684;37.928;2023-05-07T04:08:57;4.40;;;3.22;;
28509;SDS011;15723;55.684;37.928;2023-05-07T04:11:24;4.95;;;3.25;;
28509;SDS011;15723;55.684;37.928;2023-05-07T04:13:50;5.70;;;3.00;;
28509;SDS011;15723;55.684;37.928;2023-05-07T04:16:20;6.18;;;3.15;;
28509;SDS011;15723;55.684;37.928;2023-05-07T04:18:47;3.58;;;3.00;;
28509;SDS011;15723;55.684;37.928;2023-05-07T04:21:16;4.30;;;3.25;;
28509;SDS011;15723;55.684;37.928;2023-05-07T04:23:48;2.85;;;2.50;;
28509;SDS011;15723;55.684;37.928;2023-05-07T04:26:15;3.72;;;2.58;;
28509;SDS011;15723;55.684;37.928;2023-05-07T04:28:43;2.88;;;2.60;;
28509;SDS011;15723;55.684;37.928;2023-05-07T04:31:10;3.53;;;2.40;;
28509;SDS011;15723;55.684;37.928;2023-05-07T04:33:37;3.53;;;2.60;;
28509;SDS011;15723;55.684;37.928;2023-05-07T04:36:06;4.10;;;2.42;;
28509;SDS011;15723;55.684;37.928;2023-05-07T04:38:38;6.43;;;2.50;;
28509;SDS011;15723;55.684;37.928;2023-05-07T04:41:05;2.80;;;2.42;;
28509;SDS011;15723;55.684;37.928;2023-05-07T04:43:36;4.32;;;2.47;;
28509;SDS011;15723;55.684;37.928;2023-05-07T04:46:03;2.20;;;2.00;;
28509;SDS011;15723;55.684;37.928;2023-05-07T04:48:30;2.78;;;2.28;;
28509;SDS011;15723;55.684;37.928;2023-05-07T04:50:58;2.40;;;2.10;;
28509;SDS011;15723;55.684;37.928;2023-05-07T04:53:24;4.03;;;1.90;;
28509;SDS011;15723;55.684;37.928;2023-05-07T04:55:56;3.28;;;2.20;;
28509;SDS011;15723;55.684;37.928;2023-05-07T04:58:26;2.45;;;2.25;;
28509;SDS011;15723;55.684;37.928;2023-05-07T05:00:53;2.78;;;1.83;;
28509;SDS011;15723;55.684;37.928;2023-05-07T05:03:19;1.67;;;1.58;;
28509;SDS011;15723;55.684;37.928;2023-05-07T05:05:45;4.78;;;1.67;;
28509;SDS011;15723;55.684;37.928;2023-05-07T05:08:13;4.95;;;1.80;;
28509;SDS011;15723;55.684;37.928;2023-05-07T05:10:41;1.80;;;1.70;;
28509;SDS011;15723;55.684;37.928;2023-05-07T05:13:10;2.00;;;1.80;;
28509;SDS011;15723;55.684;37.928;2023-05-07T05:15:38;1.80;;;1.42;;
28509;SDS011;15723;55.684;37.928;2023-05-07T05:18:05;2.78;;;1.90;;
28509;SDS011;15723;55.684;37.928;2023-05-07T05:20:31;2.75;;;1.90;;
28509;SDS011;15723;55.684;37.928;2023-05-07T05:22:58;3.25;;;1.75;;
28509;SDS011;15723;55.684;37.928;2023-05-07T05:25:24;4.70;;;1.83;;
28509;SDS011;15723;55.684;37.928;2023-05-07T05:27:51;6.68;;;1.90;;
28509;SDS011;15723;55.684;37.928;2023-05-07T05:30:18;2.88;;;1.83;;
28509;SDS011;15723;55.684;37.928;2023-05-07T05:32:46;6.18;;;1.83;;
28509;SDS011;15723;55.684;37.928;2023-05-07T05:35:12;2.88;;;2.00;;
28509;SDS011;15723;55.684;37.928;2023-05-07T05:37:41;2.58;;;1.73;;
28509;SDS011;15723;55.684;37.928;2023-05-07T05:40:08;2.83;;;2.10;;
28509;SDS011;15723;55.684;37.928;2023-05-07T05:42:35;4.43;;;1.50;;
28509;SDS011;15723;55.684;37.928;2023-05-07T05:45:02;4.93;;;1.77;;
28509;SDS011;15723;55.684;37.928;2023-05-07T05:47:31;2.97;;;1.30;;
28509;SDS011;15723;55.684;37.928;2023-05-07T05:49:58;3.50;;;1.98;;
28509;SDS011;15723;55.684;37.928;2023-05-07T05:52:25;2.78;;;1.40;;
28509;SDS011;15723;55.684;37.928;2023-05-07T05:54:53;2.00;;;1.50;;
28509;SDS011;15723;55.684;37.928;2023-05-07T05:57:20;3.10;;;1.85;;
28509;SDS011;15723;55.684;37.928;2023-05-07T05:59:46;2.00;;;1.58;;
28509;SDS011;15723;55.684;37.928;2023-05-07T06:02:13;1.63;;;1.25;;
28509;SDS011;15723;55.684;37.928;2023-05-07T06:04:40;4.22;;;1.83;;
28509;SDS011;15723;55.684;37.928;2023-05-07T06:07:09;2.45;;;1.30;;
28509;SDS011;15723;55.684;37.928;2023-05-07T06:09:36;3.58;;;1.38;;
28509;SDS011;15723;55.684;37.928;2023-05-07T06:12:02;4.43;;;1.75;;
28509;SDS011;15723;55.684;37.928;2023-05-07T06:14:30;1.58;;;1.48;;
28509;SDS011;15723;55.684;37.928;2023-05-07T06:16:57;5.22;;;1.58;;
28509;SDS011;15723;55.684;37.928;2023-05-07T06:19:23;4.35;;;2.20;;
28509;SDS011;15723;55.684;37.928;2023-05-07T06:21:52;2.30;;;1.60;;
28509;SDS011;15723;55.684;37.928;2023-05-07T06:24:18;2.15;;;1.98;;
28509;SDS011;15723;55.684;37.928;2023-05-07T06:26:44;1.90;;;1.60;;
28509;SDS011;15723;55.684;37.928;2023-05-07T06:29:12;5.47;;;1.73;;
28509;SDS011;15723;55.684;37.928;2023-05-07T06:31:40;2.75;;;1.63;;
28509;SDS011;15723;55.684;37.928;2023-05-07T06:34:08;2.20;;;1.65;;
28509;SDS011;15723;55.684;37.928;2023-05-07T06:36:37;6.97;;;1.35;;
28509;SDS011;15723;55.684;37.928;2023-05-07T06:39:12;3.50;;;1.70;;
28509;SDS011;15723;55.684;37.928;2023-05-07T06:41:38;3.00;;;1.63;;
28509;SDS011;15723;55.684;37.928;2023-05-07T06:44:09;5.57;;;1.90;;
28509;SDS011;15723;55.684;37.928;2023-05-07T06:46:41;1.30;;;1.20;;
28509;SDS011;15723;55.684;37.928;2023-05-07T06:49:08;1.88;;;1.35;;
28509;SDS011;15723;55.684;37.928;2023-05-07T06:51:35;2.05;;;1.10;;
28509;SDS011;15723;55.684;37.928;2023-05-07T06:54:03;2.00;;;1.30;;
28509;SDS011;15723;55.684;37.928;2023-05-07T06:56:32;3.92;;;1.60;;
28509;SDS011;15723;55.684;37.928;2023-05-07T06:59:00;3.13;;;2.00;;
28509;SDS011;15723;55.684;37.928;2023-05-07T07:01:31;2.60;;;1.83;;
28509;SDS011;15723;55.684;37.928;2023-05-07T07:03:59;2.55;;;1.25;;
28509;SDS011;15723;55.684;37.928;2023-05-07T07:06:28;6.05;;;1.08;;
28509;SDS011;15723;55.684;37.928;2023-05-07T07:08:59;2.55;;;1.27;;
28509;SDS011;15723;55.684;37.928;2023-05-07T07:11:26;2.25;;;1.33;;
28509;SDS011;15723;55.684;37.928;2023-05-07T07:13:53;3.03;;;1.38;;
28509;SDS011;15723;55.684;37.928;2023-05-07T07:16:20;2.10;;;1.70;;
28509;SDS011;15723;55.684;37.928;2023-05-07T07:18:48;2.10;;;1.90;;
28509;SDS011;15723;55.684;37.928;2023-05-07T07:21:14;10.80;;;1.80;;
28509;SDS011;15723;55.684;37.928;2023-05-07T07:23:41;4.63;;;1.20;;
28509;SDS011;15723;55.684;37.928;2023-05-07T07:26:07;1.65;;;1.00;;
28509;SDS011;15723;55.684;37.928;2023-05-07T07:28:34;4.10;;;1.40;;
28509;SDS011;15723;55.684;37.928;2023-05-07T07:31:00;3.80;;;1.17;;
28509;SDS011;15723;55.684;37.928;2023-05-07T07:33:27;3.20;;;1.50;;
28509;SDS011;15723;55.684;37.928;2023-05-07T07:35:55;3.05;;;1.30;;
28509;SDS011;15723;55.684;37.928;2023-05-07T07:38:22;1.95;;;1.70;;
28509;SDS011;15723;55.684;37.928;2023-05-07T07:40:48;1.80;;;1.48;;
28509;SDS011;15723;55.684;37.928;2023-05-07T07:43:14;1.40;;;0.98;;
28509;SDS011;15723;55.684;37.928;2023-05-07T07:45:42;2.83;;;1.23;;
28509;SDS011;15723;55.684;37.928;2023-05-07T07:48:08;5.40;;;1.33;;
28509;SDS011;15723;55.684;37.928;2023-05-07T07:50:36;4.90;;;1.02;;
28509;SDS011;15723;55.684;37.928;2023-05-07T07:53:05;4.00;;;1.30;;
28509;SDS011;15723;55.684;37.928;2023-05-07T07:55:32;2.40;;;1.42;;
28509;SDS011;15723;55.684;37.928;2023-05-07T07:58:05;1.60;;;1.15;;
28509;SDS011;15723;55.684;37.928;2023-05-07T08:00:33;2.42;;;1.17;;
28509;SDS011;15723;55.684;37.928;2023-05-07T08:02:59;1.77;;;1.20;;
28509;SDS011;15723;55.684;37.928;2023-05-07T08:05:31;3.38;;;0.95;;
28509;SDS011;15723;55.684;37.928;2023-05-07T08:07:58;3.15;;;1.38;;
28509;SDS011;15723;55.684;37.928;2023-05-07T08:10:29;3.67;;;1.50;;
28509;SDS011;15723;55.684;37.928;2023-05-07T08:13:03;1.30;;;1.17;;
28509;SDS011;15723;55.684;37.928;2023-05-07T08:15:31;2.58;;;1.23;;
28509;SDS011;15723;55.684;37.928;2023-05-07T08:17:58;3.70;;;1.73;;
28509;SDS011;15723;55.684;37.928;2023-05-07T08:20:27;1.85;;;1.27;;
28509;SDS011;15723;55.684;37.928;2023-05-07T08:22:55;2.80;;;1.50;;
28509;SDS011;15723;55.684;37.928;2023-05-07T08:25:21;3.97;;;1.98;;
28509;SDS011;15723;55.684;37.928;2023-05-07T08:27:48;1.95;;;1.42;;
28509;SDS011;15723;55.684;37.928;2023-05-07T08:30:15;1.45;;;1.20;;
28509;SDS011;15723;55.684;37.928;2023-05-07T08:32:42;2.45;;;1.63;;
28509;SDS011;15723;55.684;37.928;2023-05-07T08:35:08;3.45;;;1.50;;
28509;SDS011;15723;55.684;37.928;2023-05-07T08:37:35;1.85;;;1.65;;
28509;SDS011;15723;55.684;37.928;2023-05-07T08:40:03;3.25;;;1.15;;
28509;SDS011;15723;55.684;37.928;2023-05-07T08:42:35;3.25;;;1.00;;
28509;SDS011;15723;55.684;37.928;2023-05-07T08:45:08;2.80;;;1.43;;
28509;SDS011;15723;55.684;37.928;2023-05-07T08:47:44;2.15;;;1.35;;
28509;SDS011;15723;55.684;37.928;2023-05-07T08:50:18;1.13;;;0.90;;
28509;SDS011;15723;55.684;37.928;2023-05-07T08:52:47;1.75;;;1.10;;
28509;SDS011;15723;55.684;37.928;2023-05-07T08:55:13;8.23;;;1.25;;
28509;SDS011;15723;55.684;37.928;2023-05-07T08:57:41;3.30;;;1.02;;
28509;SDS011;15723;55.684;37.928;2023-05-07T09:00:09;3.53;;;1.00;;
28509;SDS011;15723;55.684;37.928;2023-05-07T09:02:38;3.80;;;1.30;;
28509;SDS011;15723;55.684;37.928;2023-05-07T09:05:06;2.45;;;1.25;;
28509;SDS011;15723;55.684;37.928;2023-05-07T09:07:33;2.28;;;1.13;;
28509;SDS011;15723;55.684;37.928;2023-05-07T09:10:05;4.40;;;1.85;;
28509;SDS011;15723;55.684;37.928;2023-05-07T09:12:34;4.90;;;1.35;;
28509;SDS011;15723;55.684;37.928;2023-05-07T09:15:03;3.47;;;1.00;;
28509;SDS011;15723;55.684;37.928;2023-05-07T09:17:33;3.88;;;1.40;;
28509;SDS011;15723;55.684;37.928;2023-05-07T09:20:04;2.72;;;1.10;;
28509;SDS011;15723;55.684;37.928;2023-05-07T09:22:33;2.90;;;1.23;;
28509;SDS011;15723;55.684;37.928;2023-05-07T09:25:05;2.13;;;1.15;;
28509;SDS011;15723;55.684;37.928;2023-05-07T09:27:33;2.92;;;1.20;;
28509;SDS011;15723;55.684;37.928;2023-05-07T09:30:02;1.83;;;1.20;;
28509;SDS011;15723;55.684;37.928;2023-05-07T09:32:34;3.08;;;1.20;;
28509;SDS011;15723;55.684;37.928;2023-05-07T09:35:02;2.45;;;1.45;;
28509;SDS011;15723;55.684;37.928;2023-05-07T09:37:30;5.60;;;1.23;;
28509;SDS011;15723;55.684;37.928;2023-05-07T09:39:58;1.17;;;0.98;;
28509;SDS011;15723;55.684;37.928;2023-05-07T09:42:27;2.30;;;1.40;;
28509;SDS011;15723;55.684;37.928;2023-05-07T09:44:59;1.85;;;1.42;;
28509;SDS011;15723;55.684;37.928;2023-05-07T09:47:31;1.98;;;1.30;;
28509;SDS011;15723;55.684;37.928;2023-05-07T09:50:00;8.40;;;1.10;;
28509;SDS011;15723;55.684;37.928;2023-05-07T09:52:33;2.78;;;1.00;;
28509;SDS011;15723;55.684;37.928;2023-05-07T09:55:04;1.52;;;1.20;;
28509;SDS011;15723;55.684;37.928;2023-05-07T09:57:32;1.25;;;0.90;;
28509;SDS011;15723;55.684;37.928;2023-05-07T10:00:04;3.60;;;1.40;;
28509;SDS011;15723;55.684;37.928;2023-05-07T10:02:51;2.22;;;1.30;;
28509;SDS011;15723;55.684;37.928;2023-05-07T10:05:27;2.00;;;1.30;;
28509;SDS011;15723;55.684;37.928;2023-05-07T10:07:56;1.88;;;1.60;;
28509;SDS011;15723;55.684;37.928;2023-05-07T10:10:23;5.57;;;1.85;;
28509;SDS011;15723;55.684;37.928;2023-05-07T10:12:50;2.47;;;1.45;;
28509;SDS011;15723;55.684;37.928;2023-05-07T10:15:27;3.05;;;1.33;;
28509;SDS011;15723;55.684;37.928;2023-05-07T10:17:56;2.80;;;1.30;;
28509;SDS011;15723;55.684;37.928;2023-05-07T10:20:24;2.05;;;1.40;;
28509;SDS011;15723;55.684;37.928;2023-05-07T10:22:53;3.08;;;1.10;;
28509;SDS011;15723;55.684;37.928;2023-05-07T10:25:30;4.40;;;1.88;;
28509;SDS011;15723;55.684;37.928;2023-05-07T10:28:05;2.45;;;1.45;;
28509;SDS011;15723;55.684;37.928;2023-05-07T10:33:56;2.05;;;1.25;;
28509;SDS011;15723;55.684;37.928;2023-05-07T10:36:25;1.60;;;0.98;;
28509;SDS011;15723;55.684;37.928;2023-05-07T10:38:53;2.45;;;1.20;;
28509;SDS011;15723;55.684;37.928;2023-05-07T10:41:20;1.73;;;1.10;;
28509;SDS011;15723;55.684;37.928;2023-05-07T10:43:48;2.35;;;1.17;;
28509;SDS011;15723;55.684;37.928;2023-05-07T10:46:35;1.60;;;1.30;;
28509;SDS011;15723;55.684;37.928;2023-05-07T10:49:07;2.28;;;1.40;;
28509;SDS011;15723;55.684;37.928;2023-05-07T10:54:46;5.10;;;1.38;;
28509;SDS011;15723;55.684;37.928;2023-05-07T10:57:34;4.10;;;1.42;;
28509;SDS011;15723;55.684;37.928;2023-05-07T11:06:08;1.83;;;1.30;;
28509;SDS011;15723;55.684;37.928;2023-05-07T11:08:53;2.58;;;1.20;;
28509;SDS011;15723;55.684;37.928;2023-05-07T11:17:29;2.63;;;1.45;;
28509;SDS011;15723;55.684;37.928;2023-05-07T11:20:04;3.45;;;1.60;;
28509;SDS011;15723;55.684;37.928;2023-05-07T11:22:51;4.45;;;1.70;;
28509;SDS011;15723;55.684;37.928;2023-05-07T11:25:37;1.65;;;1.40;;
28509;SDS011;15723;55.684;37.928;2023-05-07T11:28:13;8.48;;;1.33;;
28509;SDS011;15723;55.684;37.928;2023-05-07T11:30:46;8.88;;;1.70;;
28509;SDS011;15723;55.684;37.928;2023-05-07T11:33:16;2.00;;;1.35;;
28509;SDS011;15723;55.684;37.928;2023-05-07T11:35:45;5.43;;;1.70;;
28509;SDS011;15723;55.684;37.928;2023-05-07T11:38:13;4.32;;;1.50;;
28509;SDS011;15723;55.684;37.928;2023-05-07T11:40:54;3.20;;;1.48;;
28509;SDS011;15723;55.684;37.928;2023-05-07T11:43:22;2.58;;;1.30;;
28509;SDS011;15723;55.684;37.928;2023-05-07T11:45:49;5.25;;;1.83;;
28509;SDS011;15723;55.684;37.928;2023-05-07T11:48:16;5.95;;;1.67;;
28509;SDS011;15723;55.684;37.928;2023-05-07T11:50:52;3.08;;;1.88;;
28509;SDS011;15723;55.684;37.928;2023-05-07T11:55:56;6.78;;;2.30;;
28509;SDS011;15723;55.684;37.928;2023-05-07T11:58:23;4.63;;;1.98;;
28509;SDS011;15723;55.684;37.928;2023-05-07T12:00:50;2.35;;;1.52;;
28509;SDS011;15723;55.684;37.928;2023-05-07T12:03:17;3.10;;;1.27;;
28509;SDS011;15723;55.684;37.928;2023-05-07T12:05:45;2.83;;;1.30;;
28509;SDS011;15723;55.684;37.928;2023-05-07T12:08:15;3.13;;;1.75;;
28509;SDS011;15723;55.684;37.928;2023-05-07T12:10:42;2.80;;;1.58;;
28509;SDS011;15723;55.684;37.928;2023-05-07T12:13:23;2.10;;;1.65;;
28509;SDS011;15723;55.684;37.928;2023-05-07T12:15:55;5.65;;;1.30;;
28509;SDS011;15723;55.684;37.928;2023-05-07T12:18:22;2.35;;;1.48;;
28509;SDS011;15723;55.684;37.928;2023-05-07T12:20:49;1.30;;;1.20;;
28509;SDS011;15723;55.684;37.928;2023-05-07T12:23:17;3.13;;;1.20;;
28509;SDS011;15723;55.684;37.928;2023-05-07T12:25:44;3.58;;;1.25;;
28509;SDS011;15723;55.684;37.928;2023-05-07T12:28:13;8.18;;;1.50;;
28509;SDS011;15723;55.684;37.928;2023-05-07T12:30:44;2.88;;;1.42;;
28509;SDS011;15723;55.684;37.928;2023-05-07T12:33:16;3.35;;;1.30;;
28509;SDS011;15723;55.684;37.928;2023-05-07T12:35:43;2.42;;;1.50;;
28509;SDS011;15723;55.684;37.928;2023-05-07T12:38:14;1.45;;;1.30;;
28509;SDS011;15723;55.684;37.928;2023-05-07T12:40:43;2.33;;;1.40;;
28509;SDS011;15723;55.684;37.928;2023-05-07T12:43:26;3.38;;;1.67;;
28509;SDS011;15723;55.684;37.928;2023-05-07T12:45:54;5.68;;;1.63;;
28509;SDS011;15723;55.684;37.928;2023-05-07T12:48:25;4.38;;;1.65;;
28509;SDS011;15723;55.684;37.928;2023-05-07T12:50:53;7.05;;;2.03;;
28509;SDS011;15723;55.684;37.928;2023-05-07T12:53:21;2.60;;;1.52;;
28509;SDS011;15723;55.684;37.928;2023-05-07T12:55:49;2.70;;;1.90;;
28509;SDS011;15723;55.684;37.928;2023-05-07T12:58:20;3.67;;;1.23;;
28509;SDS011;15723;55.684;37.928;2023-05-07T13:03:24;2.63;;;1.48;;
28509;SDS011;15723;55.684;37.928;2023-05-07T13:05:57;3.13;;;1.40;;
28509;SDS011;15723;55.684;37.928;2023-05-07T13:08:31;3.90;;;1.45;;
28509;SDS011;15723;55.684;37.928;2023-05-07T13:11:00;4.28;;;1.50;;
28509;SDS011;15723;55.684;37.928;2023-05-07T13:13:31;2.55;;;1.77;;
28509;SDS011;15723;55.684;37.928;2023-05-07T13:15:59;4.50;;;1.70;;
28509;SDS011;15723;55.684;37.928;2023-05-07T13:18:26;3.50;;;1.73;;
28509;SDS011;15723;55.684;37.928;2023-05-07T13:20:54;5.30;;;1.67;;
28509;SDS011;15723;55.684;37.928;2023-05-07T13:23:21;5.07;;;1.55;;
28509;SDS011;15723;55.684;37.928;2023-05-07T13:25:48;3.08;;;1.63;;
28509;SDS011;15723;55.684;37.928;2023-05-07T13:28:16;4.22;;;1.70;;
28509;SDS011;15723;55.684;37.928;2023-05-07T13:30:42;2.85;;;1.48;;
28509;SDS011;15723;55.684;37.928;2023-05-07T13:33:09;2.28;;;1.55;;
28509;SDS011;15723;55.684;37.928;2023-05-07T13:35:35;3.22;;;1.73;;
28509;SDS011;15723;55.684;37.928;2023-05-07T13:38:02;4.63;;;1.17;;
28509;SDS011;15723;55.684;37.928;2023-05-07T13:40:28;2.95;;;1.25;;
28509;SDS011;15723;55.684;37.928;2023-05-07T13:42:56;1.73;;;1.30;;
28509;SDS011;15723;55.684;37.928;2023-05-07T13:45:24;5.65;;;1.65;;
28509;SDS011;15723;55.684;37.928;2023-05-07T13:47:55;3.55;;;1.55;;
28509;SDS011;15723;55.684;37.928;2023-05-07T13:50:22;1.88;;;1.27;;
28509;SDS011;15723;55.684;37.928;2023-05-07T13:52:49;3.00;;;1.40;;
28509;SDS011;15723;55.684;37.928;2023-05-07T13:55:19;2.25;;;1.50;;
28509;SDS011;15723;55.684;37.928;2023-05-07T13:57:47;6.35;;;2.10;;
28509;SDS011;15723;55.684;37.928;2023-05-07T14:00:13;6.93;;;3.03;;
28509;SDS011;15723;55.684;37.928;2023-05-07T14:02:41;5.20;;;1.85;;
28509;SDS011;15723;55.684;37.928;2023-05-07T14:05:08;2.85;;;1.30;;
28509;SDS011;15723;55.684;37.928;2023-05-07T14:07:35;2.50;;;1.38;;
28509;SDS011;15723;55.684;37.928;2023-05-07T14:10:02;22.40;;;11.05;;
28509;SDS011;15723;55.684;37.928;2023-05-07T14:12:32;5.53;;;1.80;;
28509;SDS011;15723;55.684;37.928;2023-05-07T14:14:59;4.95;;;1.90;;
28509;SDS011;15723;55.684;37.928;2023-05-07T14:17:26;14.40;;;6.65;;
28509;SDS011;15723;55.684;37.928;2023-05-07T14:19:53;13.93;;;6.50;;
28509;SDS011;15723;55.684;37.928;2023-05-07T14:22:21;2.92;;;1.80;;
28509;SDS011;15723;55.684;37.928;2023-05-07T14:24:48;3.63;;;1.30;;
28509;SDS011;15723;55.684;37.928;2023-05-07T14:27:15;2.53;;;1.45;;
28509;SDS011;15723;55.684;37.928;2023-05-07T14:29:42;2.38;;;1.30;;
28509;SDS011;15723;55.684;37.928;2023-05-07T14:32:09;2.67;;;1.33;;
28509;SDS011;15723;55.684;37.928;2023-05-07T14:34:35;2.60;;;1.33;;
28509;SDS011;15723;55.684;37.928;2023-05-07T14:37:01;6.68;;;1.50;;
28509;SDS011;15723;55.684;37.928;2023-05-07T14:39:27;4.15;;;1.75;;
28509;SDS011;15723;55.684;37.928;2023-05-07T14:41:54;4.00;;;1.23;;
28509;SDS011;15723;55.684;37.928;2023-05-07T14:44:22;2.60;;;1.40;;
28509;SDS011;15723;55.684;37.928;2023-05-07T14:46:48;1.83;;;1.35;;
28509;SDS011;15723;55.684;37.928;2023-05-07T14:49:14;2.67;;;1.23;;
28509;SDS011;15723;55.684;37.928;2023-05-07T14:51:44;3.17;;;1.70;;
28509;SDS011;15723;55.684;37.928;2023-05-07T14:54:11;3.85;;;1.90;;
28509;SDS011;15723;55.684;37.928;2023-05-07T14:56:39;5.03;;;1.95;;
28509;SDS011;15723;55.684;37.928;2023-05-07T14:59:06;8.20;;;3.20;;
28509;SDS011;15723;55.684;37.928;2023-05-07T15:01:36;7.10;;;3.78;;
28509;SDS011;15723;55.684;37.928;2023-05-07T15:04:05;6.25;;;3.45;;